createdAt,value
2022-11-19T00:01:27.148Z,100430.69
2022-11-19T00:03:54.719Z,100433.44
2022-11-19T00:06:23.919Z,100435.31
2022-11-19T00:08:50.958Z,100436.38
2022-11-19T00:11:44.556Z,100439.97
2022-11-19T00:14:14.043Z,100451.63
2022-11-19T00:16:44.189Z,100450.84
2022-11-19T00:19:12.047Z,100450.94
2022-11-19T00:21:39.214Z,100451.88
2022-11-19T00:24:06.886Z,100445.84
2022-11-19T00:26:34.467Z,100429.13
2022-11-19T00:29:01.465Z,100457.47
2022-11-19T00:31:28.402Z,100461.06
2022-11-19T00:33:55.487Z,100462.94
2022-11-19T00:36:23.119Z,100468.22
2022-11-19T00:38:50.378Z,100454.16
2022-11-19T00:41:17.384Z,100455.19
2022-11-19T00:43:53.659Z,100487.91
2022-11-19T00:46:26.583Z,100491.66
2022-11-19T00:48:55.404Z,100490.75
2022-11-19T00:51:24.566Z,100492.53
2022-11-19T00:53:52.047Z,100489.13
2022-11-19T00:56:21.230Z,100472.38
2022-11-19T00:58:48.883Z,100494.59
2022-11-19T01:01:18.117Z,100501.69
2022-11-19T01:03:46.406Z,100512.28
2022-11-19T01:06:18.831Z,100515.97
2022-11-19T01:08:46.508Z,100516.81
2022-11-19T01:11:16.589Z,100512.44
2022-11-19T01:13:44.051Z,100514.28
2022-11-19T01:16:14.386Z,100517.00
2022-11-19T01:18:42.873Z,100515.28
2022-11-19T01:21:11.397Z,100515.28
2022-11-19T01:23:39.610Z,100517.09
2022-11-19T01:26:07.029Z,100517.16
2022-11-19T01:28:34.766Z,100515.50
2022-11-19T01:31:10.241Z,100515.66
2022-11-19T01:33:38.348Z,100519.91
2022-11-19T01:36:08.403Z,100519.06
2022-11-19T01:38:35.245Z,100496.94
2022-11-19T01:41:02.731Z,100527.09
2022-11-19T01:43:45.946Z,100524.53
2022-11-19T01:46:18.092Z,100532.47
2022-11-19T01:49:06.349Z,100544.84
2022-11-19T01:51:38.500Z,100552.88
2022-11-19T01:54:23.002Z,100529.03
2022-11-19T01:56:50.026Z,100556.47
2022-11-19T01:59:19.469Z,100570.66
2022-11-19T02:01:46.775Z,100569.69
2022-11-19T02:04:16.871Z,100568.00
2022-11-19T02:06:45.687Z,100568.00
2022-11-19T02:09:12.516Z,100566.28
2022-11-19T02:12:16.581Z,100582.16
2022-11-19T02:14:54.994Z,100569.88
2022-11-19T02:18:06.361Z,100574.31
2022-11-19T02:20:48.548Z,100572.50
2022-11-19T02:23:30.696Z,100566.47
2022-11-19T02:26:00.611Z,100574.41
2022-11-19T02:28:45.912Z,100581.47
2022-11-19T02:31:24.416Z,100584.13
2022-11-19T02:34:04.804Z,100589.41
2022-11-19T02:36:56.959Z,100563.88
2022-11-19T02:39:23.749Z,100592.16
2022-11-19T02:41:53.568Z,100594.81
2022-11-19T02:44:43.836Z,100593.94
2022-11-19T02:47:16.553Z,100600.09
2022-11-19T02:49:45.396Z,100610.75
2022-11-19T02:52:14.889Z,100609.91
2022-11-19T02:54:42.083Z,100615.22
2022-11-19T02:57:12.094Z,100630.13
2022-11-19T03:00:06.484Z,100623.16
2022-11-19T03:02:56.967Z,100626.63
2022-11-19T03:05:27.203Z,100606.34
2022-11-19T03:07:54.312Z,100609.75
2022-11-19T03:10:25.505Z,100631.84
2022-11-19T03:13:01.289Z,100632.78
2022-11-19T03:16:16.281Z,100612.31
2022-11-19T03:18:55.523Z,100631.91
2022-11-19T03:21:44.441Z,100638.16
2022-11-19T03:24:20.773Z,100611.75
2022-11-19T03:26:54.758Z,100639.94
2022-11-19T03:29:25.369Z,100614.22
2022-11-19T03:31:58.593Z,100645.25
2022-11-19T03:34:29.073Z,100627.59
2022-11-19T03:36:58.834Z,100653.19
2022-11-19T03:39:26.023Z,100635.53
2022-11-19T03:41:54.478Z,100663.84
2022-11-19T03:44:37.113Z,100678.75
2022-11-19T03:47:19.384Z,100678.75
2022-11-19T03:49:51.114Z,100677.09
2022-11-19T03:52:20.852Z,100674.44
2022-11-19T03:54:48.162Z,100675.38
2022-11-19T03:57:19.242Z,100675.38
2022-11-19T03:59:47.478Z,100681.50
2022-11-19T04:02:15.185Z,100681.50
2022-11-19T04:04:42.483Z,100676.50
2022-11-19T04:07:12.231Z,100687.72
2022-11-19T04:09:40.393Z,100682.44
2022-11-19T04:12:12.964Z,100685.94
2022-11-19T04:14:39.843Z,100664.63
2022-11-19T04:17:06.662Z,100680.50
2022-11-19T04:19:33.518Z,100703.59
2022-11-19T04:22:00.421Z,100713.25
2022-11-19T04:24:27.247Z,100701.66
2022-11-19T04:26:54.151Z,100723.91
2022-11-19T04:29:21.242Z,100738.75
2022-11-19T04:31:48.350Z,100738.75
2022-11-19T04:34:15.350Z,100733.81
2022-11-19T04:36:42.578Z,100724.66
2022-11-19T04:39:11.171Z,100746.78
2022-11-19T04:41:38.969Z,100749.44
2022-11-19T04:44:05.945Z,100749.44
2022-11-19T04:46:33.086Z,100752.94
2022-11-19T04:48:59.955Z,100734.31
2022-11-19T04:51:26.817Z,100764.44
2022-11-19T04:53:54.930Z,100759.16
2022-11-19T04:56:21.805Z,100759.16
2022-11-19T04:58:48.654Z,100729.94
2022-11-19T05:01:15.625Z,100727.31
2022-11-19T05:03:42.635Z,100732.59
2022-11-19T05:06:09.562Z,100760.88
2022-11-19T05:08:36.439Z,100770.50
2022-11-19T05:11:03.242Z,100775.03
2022-11-19T05:13:30.074Z,100768.81
2022-11-19T05:15:57.022Z,100772.38
2022-11-19T05:18:24.639Z,100771.44
2022-11-19T05:20:51.493Z,100744.03
2022-11-19T05:23:18.373Z,100751.81
2022-11-19T05:25:45.241Z,100765.19
2022-11-19T05:28:12.109Z,100742.19
2022-11-19T05:30:39.094Z,100743.09
2022-11-19T05:33:05.969Z,100767.94
2022-11-19T05:35:32.983Z,100764.44
2022-11-19T05:37:59.873Z,100765.41
2022-11-19T05:40:27.099Z,100761.78
2022-11-19T05:42:54.006Z,100765.41
2022-11-19T05:45:21.291Z,100761.78
2022-11-19T05:47:48.938Z,100761.78
2022-11-19T05:50:15.943Z,100764.44
2022-11-19T05:52:42.745Z,100765.28
2022-11-19T05:55:09.730Z,100735.19
2022-11-19T05:57:37.329Z,100751.38
2022-11-19T06:00:05.477Z,100754.81
2022-11-19T06:02:32.309Z,100753.84
2022-11-19T06:04:59.176Z,100767.09
2022-11-19T06:07:26.061Z,100748.47
2022-11-19T06:09:53.074Z,100773.34
2022-11-19T06:12:20.040Z,100772.38
2022-11-19T06:14:46.894Z,100770.69
2022-11-19T06:17:13.809Z,100771.50
2022-11-19T06:19:41.128Z,100775.97
2022-11-19T06:22:07.977Z,100770.75
2022-11-19T06:24:34.874Z,100765.47
2022-11-19T06:27:01.858Z,100768.97
2022-11-19T06:29:28.684Z,100734.47
2022-11-19T06:31:55.497Z,100755.75
2022-11-19T06:34:22.337Z,100758.38
2022-11-19T06:36:50.773Z,100761.97
2022-11-19T06:39:18.966Z,100760.09
2022-11-19T06:41:48.997Z,100765.41
2022-11-19T06:44:16.076Z,100745.50
2022-11-19T06:46:43.114Z,100767.34
2022-11-19T06:49:13.175Z,100767.94
2022-11-19T06:51:42.402Z,100773.41
2022-11-19T06:54:10.302Z,100767.50
2022-11-19T06:56:37.140Z,100770.31
2022-11-19T06:59:04.080Z,100767.63
2022-11-19T07:01:31.041Z,100780.56
2022-11-19T07:03:57.980Z,100787.44
2022-11-19T07:06:24.778Z,100789.88
2022-11-19T07:08:51.578Z,100790.66
2022-11-19T07:11:36.649Z,100797.66
2022-11-19T07:14:04.166Z,100785.97
2022-11-19T07:16:33.885Z,100805.41
2022-11-19T07:19:03.126Z,100786.56
2022-11-19T07:21:30.561Z,100810.53
2022-11-19T07:23:58.696Z,100809.63
2022-11-19T07:26:26.469Z,100805.16
2022-11-19T07:28:53.831Z,100810.38
2022-11-19T07:31:20.978Z,100798.66
2022-11-19T07:33:47.847Z,100813.78
2022-11-19T07:36:18.410Z,100813.69
2022-11-19T07:38:46.565Z,100823.34
2022-11-19T07:41:32.528Z,100816.28
2022-11-19T07:43:59.544Z,100804.66
2022-11-19T07:46:26.477Z,100827.63
2022-11-19T07:48:54.838Z,100807.22
2022-11-19T07:51:22.578Z,100801.06
2022-11-19T07:53:50.033Z,100801.91
2022-11-19T07:56:17.359Z,100804.66
2022-11-19T07:58:44.453Z,100827.94
2022-11-19T08:01:14.744Z,100826.25
2022-11-19T08:03:49.518Z,100837.78
2022-11-19T08:06:21.026Z,100832.31
2022-11-19T08:08:48.309Z,100831.28
2022-11-19T08:11:16.761Z,100827.63
2022-11-19T08:13:44.299Z,100836.31
2022-11-19T08:16:14.255Z,100835.38
2022-11-19T08:18:41.183Z,100824.81
2022-11-19T08:21:12.241Z,100829.06
2022-11-19T08:23:39.741Z,100832.47
2022-11-19T08:26:08.017Z,100829.75
2022-11-19T08:28:35.394Z,100830.53
2022-11-19T08:31:09.561Z,100832.25
2022-11-19T08:33:37.119Z,100834.69
2022-11-19T08:36:04.457Z,100831.97
2022-11-19T08:38:37.199Z,100837.28
2022-11-19T08:41:24.450Z,100837.16
2022-11-19T08:43:51.564Z,100830.78
2022-11-19T08:46:18.666Z,100835.22
2022-11-19T08:48:45.561Z,100837.75
2022-11-19T08:51:15.068Z,100841.19
2022-11-19T08:53:45.124Z,100841.19
2022-11-19T08:56:16.837Z,100817.13
2022-11-19T08:58:45.524Z,100817.97
2022-11-19T09:01:14.586Z,100840.16
2022-11-19T09:03:42.323Z,100841.88
2022-11-19T09:06:09.831Z,100842.72
2022-11-19T09:08:37.109Z,100833.09
2022-11-19T09:11:08.134Z,100844.44
2022-11-19T09:13:35.448Z,100839.03
2022-11-19T09:16:03.112Z,100843.47
2022-11-19T09:18:31.519Z,100845.38
2022-11-19T09:20:59.117Z,100841.88
2022-11-19T09:23:27.695Z,100810.78
2022-11-19T09:26:03.017Z,100833.56
2022-11-19T09:28:31.225Z,100814.72
2022-11-19T09:31:18.048Z,100836.97
2022-11-19T09:33:48.428Z,100844.00
2022-11-19T09:36:16.229Z,100817.28
2022-11-19T09:38:43.185Z,100838.59
2022-11-19T09:41:35.420Z,100841.25
2022-11-19T09:44:17.863Z,100842.06
2022-11-19T09:47:22.139Z,100843.91
2022-11-19T09:50:14.841Z,100844.75
2022-11-19T09:52:47.868Z,100814.63
2022-11-19T09:55:19.881Z,100841.13
2022-11-19T09:57:52.132Z,100816.16
2022-11-19T10:00:26.052Z,100838.28
2022-11-19T10:02:54.304Z,100842.06
2022-11-19T10:05:45.837Z,100814.03
2022-11-19T10:08:31.754Z,100837.09
2022-11-19T10:11:16.840Z,100842.38
2022-11-19T10:14:10.238Z,100840.66
2022-11-19T10:16:39.705Z,100842.38
2022-11-19T10:19:06.741Z,100846.53
2022-11-19T10:21:33.583Z,100847.00
2022-11-19T10:24:06.616Z,100843.53
2022-11-19T10:26:41.303Z,100812.88
2022-11-19T10:29:25.230Z,100845.72
2022-11-19T10:31:52.530Z,100845.53
2022-11-19T10:34:27.996Z,100842.72
2022-11-19T10:37:08.015Z,100813.00
2022-11-19T10:39:40.351Z,100835.81
2022-11-19T10:42:24.972Z,100840.31
2022-11-19T10:44:58.004Z,100842.50
2022-11-19T10:47:40.219Z,100841.19
2022-11-19T10:50:11.251Z,100845.28
2022-11-19T10:52:42.817Z,100845.72
2022-11-19T10:55:34.724Z,100825.81
2022-11-19T10:58:24.631Z,100845.88
2022-11-19T11:00:56.032Z,100849.19
2022-11-19T11:03:31.829Z,100819.66
2022-11-19T11:06:06.765Z,100847.72
2022-11-19T11:08:34.180Z,100848.19
2022-11-19T11:11:01.624Z,100840.06
2022-11-19T11:13:53.214Z,100846.03
2022-11-19T11:16:42.587Z,100839.69
2022-11-19T11:19:19.748Z,100844.31
2022-11-19T11:21:52.441Z,100817.69
2022-11-19T11:24:19.809Z,100835.44
2022-11-19T11:26:46.898Z,100836.66
2022-11-19T11:29:13.953Z,100827.94
2022-11-19T11:31:46.368Z,100822.31
2022-11-19T11:34:36.365Z,100822.88
2022-11-19T11:37:06.890Z,100805.44
2022-11-19T11:39:44.500Z,100818.84
2022-11-19T11:42:17.434Z,100805.88
2022-11-19T11:45:00.553Z,100808.81
2022-11-19T11:47:31.503Z,100811.47
2022-11-19T11:50:15.157Z,100802.47
2022-11-19T11:52:46.720Z,100798.97
2022-11-19T11:55:31.985Z,100805.31
2022-11-19T11:58:32.060Z,100787.97
2022-11-19T12:01:18.648Z,100787.47
2022-11-19T12:03:57.231Z,100788.28
2022-11-19T12:06:40.903Z,100785.31
2022-11-19T12:09:34.171Z,100758.72
2022-11-19T12:12:19.732Z,100749.34
2022-11-19T12:15:20.738Z,100769.13
2022-11-19T12:17:57.479Z,100761.78
2022-11-19T12:20:39.828Z,100765.28
2022-11-19T12:23:15.648Z,100758.72
2022-11-19T12:26:18.132Z,100756.09
2022-11-19T12:29:06.457Z,100754.78
2022-11-19T12:31:33.355Z,100753.44
2022-11-19T12:34:02.939Z,100749.63
2022-11-19T12:36:44.276Z,100725.38
2022-11-19T12:39:27.368Z,100743.53
2022-11-19T12:42:23.570Z,100738.94
2022-11-19T12:44:50.516Z,100742.19
2022-11-19T12:47:32.756Z,100738.22
2022-11-19T12:50:11.671Z,100738.31
2022-11-19T12:53:27.721Z,100741.63
2022-11-19T12:56:17.588Z,100741.56
2022-11-19T12:59:10.689Z,100741.56
2022-11-19T13:01:42.909Z,100745.81
2022-11-19T13:04:41.065Z,100743.28
2022-11-19T13:07:25.510Z,100743.16
2022-11-19T13:10:02.100Z,100738.25
2022-11-19T13:12:43.778Z,100743.38
2022-11-19T13:15:25.143Z,100741.50
2022-11-19T13:17:55.522Z,100733.53
2022-11-19T13:20:33.433Z,100714.41
2022-11-19T13:23:05.347Z,100739.06
2022-11-19T13:25:37.236Z,100735.44
2022-11-19T13:28:13.362Z,100712.16
2022-11-19T13:30:42.992Z,100714.56
2022-11-19T13:33:23.169Z,100743.47
2022-11-19T13:36:03.832Z,100727.78
2022-11-19T13:38:52.705Z,100731.59
2022-11-19T13:41:30.395Z,100725.28
2022-11-19T13:44:17.484Z,100720.00
2022-11-19T13:47:00.304Z,100694.41
2022-11-19T13:49:47.150Z,100725.13
2022-11-19T13:52:35.300Z,100717.25
2022-11-19T13:55:02.670Z,100710.75
2022-11-19T13:57:44.614Z,100713.81
2022-11-19T14:00:28.272Z,100714.50
2022-11-19T14:03:22.003Z,100701.84
2022-11-19T14:06:10.814Z,100694.84
2022-11-19T14:09:18.256Z,100694.47
2022-11-19T14:11:48.145Z,100693.56
2022-11-19T14:14:48.413Z,100683.91
2022-11-19T14:17:54.331Z,100675.03
2022-11-19T14:21:01.123Z,100674.91
2022-11-19T14:23:55.731Z,100672.28
2022-11-19T14:26:41.012Z,100656.66
2022-11-19T14:29:28.012Z,100657.41
2022-11-19T14:32:01.280Z,100655.72
2022-11-19T14:34:30.835Z,100656.38
2022-11-19T14:37:01.143Z,100656.50
2022-11-19T14:39:40.131Z,100649.31
2022-11-19T14:42:14.214Z,100659.44
2022-11-19T14:44:42.477Z,100649.59
2022-11-19T14:47:18.509Z,100652.06
2022-11-19T14:49:48.960Z,100656.50
2022-11-19T14:52:22.117Z,100637.50
2022-11-19T14:54:58.864Z,100642.97
2022-11-19T14:57:38.886Z,100644.75
2022-11-19T15:00:16.658Z,100634.50
2022-11-19T15:02:48.699Z,100624.56
2022-11-19T15:05:29.708Z,100628.31
2022-11-19T15:08:19.986Z,100622.63
2022-11-19T15:11:02.814Z,100625.84
2022-11-19T15:13:34.591Z,100630.97
2022-11-19T15:16:12.807Z,100623.78
2022-11-19T15:18:42.599Z,100621.88
2022-11-19T15:21:17.195Z,100617.63
2022-11-19T15:23:59.728Z,100609.97
2022-11-19T15:26:36.403Z,100618.47
2022-11-19T15:29:15.851Z,100619.03
2022-11-19T15:32:01.752Z,100616.28
2022-11-19T15:35:10.488Z,100612.22
2022-11-19T15:38:00.169Z,100623.41
2022-11-19T15:40:30.733Z,100613.34
2022-11-19T15:43:31.049Z,100610.28
2022-11-19T15:46:06.386Z,100622.00
2022-11-19T15:48:44.613Z,100617.19
2022-11-19T15:51:15.434Z,100616.13
2022-11-19T15:54:02.084Z,100597.72
2022-11-19T15:56:33.748Z,100614.31
2022-11-19T15:59:03.938Z,100607.25
2022-11-19T16:01:35.000Z,100608.03
2022-11-19T16:04:15.224Z,100600.19
2022-11-19T16:06:49.788Z,100601.72
2022-11-19T16:09:22.221Z,100599.16
2022-11-19T16:12:08.586Z,100594.53
2022-11-19T16:14:54.447Z,100594.06
2022-11-19T16:17:34.933Z,100587.06
2022-11-19T16:20:12.275Z,100586.88
2022-11-19T16:22:41.721Z,100572.50
2022-11-19T16:25:14.772Z,100587.38
2022-11-19T16:27:43.653Z,100582.78
2022-11-19T16:30:23.338Z,100573.06
2022-11-19T16:32:52.629Z,100583.59
2022-11-19T16:35:25.579Z,100582.09
2022-11-19T16:37:55.952Z,100575.22
2022-11-19T16:40:25.220Z,100573.63
2022-11-19T16:42:59.332Z,100577.97
2022-11-19T16:45:33.075Z,100570.38
2022-11-19T16:48:03.866Z,100571.97
2022-11-19T16:50:46.534Z,100582.34
2022-11-19T16:53:47.931Z,100579.06
2022-11-19T16:56:17.047Z,100580.25
2022-11-19T16:58:47.822Z,100573.63
2022-11-19T17:01:19.679Z,100570.59
2022-11-19T17:03:49.459Z,100571.25
2022-11-19T17:06:26.262Z,100571.91
2022-11-19T17:09:01.902Z,100565.75
2022-11-19T17:12:12.444Z,100570.78
2022-11-19T17:14:40.823Z,100562.72
2022-11-19T17:17:26.970Z,100569.75
2022-11-19T17:19:56.862Z,100560.94
2022-11-19T17:22:33.492Z,100547.97
2022-11-19T17:25:04.262Z,100556.50
2022-11-19T17:27:37.893Z,100549.28
2022-11-19T17:30:26.323Z,100542.28
2022-11-19T17:32:58.180Z,100548.06
2022-11-19T17:35:36.841Z,100538.94
2022-11-19T17:38:30.774Z,100533.38
2022-11-19T17:41:05.644Z,100530.63
2022-11-19T17:43:58.114Z,100524.38
2022-11-19T17:46:28.772Z,100518.09
2022-11-19T17:48:55.816Z,100511.88
2022-11-19T17:51:26.149Z,100508.25
2022-11-19T17:53:53.753Z,100497.75
2022-11-19T17:56:30.248Z,100508.06
2022-11-19T17:59:00.140Z,100485.91
2022-11-19T18:01:27.731Z,100493.84
2022-11-19T18:03:55.089Z,100488.56
2022-11-19T18:06:22.333Z,100481.00
2022-11-19T18:08:49.661Z,100481.91
2022-11-19T18:11:23.581Z,100482.25
2022-11-19T18:13:57.653Z,100466.44
2022-11-19T18:16:27.607Z,100478.69
2022-11-19T18:18:56.332Z,100480.00
2022-11-19T18:21:28.979Z,100482.53
2022-11-19T18:23:56.128Z,100478.97
2022-11-19T18:26:24.079Z,100473.25
2022-11-19T18:28:51.826Z,100474.09
2022-11-19T18:31:27.200Z,100467.84
2022-11-19T18:33:55.833Z,100467.75
2022-11-19T18:36:24.539Z,100467.53
2022-11-19T18:38:53.390Z,100471.38
2022-11-19T18:41:20.842Z,100465.84
2022-11-19T18:44:06.825Z,100459.03
2022-11-19T18:46:34.902Z,100459.19
2022-11-19T18:49:03.321Z,100455.50
2022-11-19T18:51:33.211Z,100469.19
2022-11-19T18:54:02.696Z,100455.72
2022-11-19T18:56:29.777Z,100462.09
2022-11-19T18:59:00.461Z,100457.25
2022-11-19T19:01:33.205Z,100459.13
2022-11-19T19:04:03.685Z,100446.84
2022-11-19T19:06:32.379Z,100456.13
2022-11-19T19:09:00.152Z,100454.28
2022-11-19T19:11:47.740Z,100452.72
2022-11-19T19:14:17.169Z,100451.13
2022-11-19T19:16:44.325Z,100458.88
2022-11-19T19:19:14.984Z,100447.63
2022-11-19T19:21:43.203Z,100443.50
2022-11-19T19:24:10.741Z,100444.91
2022-11-19T19:26:38.189Z,100428.28
2022-11-19T19:29:07.915Z,100430.72
2022-11-19T19:31:36.584Z,100430.72
2022-11-19T19:34:04.861Z,100428.69
2022-11-19T19:36:36.381Z,100437.50
2022-11-19T19:39:05.329Z,100424.31
2022-11-19T19:41:33.008Z,100426.69
2022-11-19T19:44:04.428Z,100427.97
2022-11-19T19:46:33.777Z,100425.88
2022-11-19T19:49:00.999Z,100417.81
2022-11-19T19:51:30.824Z,100421.31
2022-11-19T19:54:00.053Z,100407.41
2022-11-19T19:56:32.322Z,100408.66
2022-11-19T19:59:00.728Z,100407.56
2022-11-19T20:01:35.550Z,100407.00
2022-11-19T20:04:08.400Z,100401.25
2022-11-19T20:06:43.939Z,100389.25
2022-11-19T20:09:16.978Z,100394.25
2022-11-19T20:11:44.724Z,100394.06
2022-11-19T20:14:11.985Z,100395.72
2022-11-19T20:16:41.414Z,100396.06
2022-11-19T20:19:14.615Z,100392.56
2022-11-19T20:21:42.316Z,100389.91
2022-11-19T20:24:13.125Z,100388.09
2022-11-19T20:26:42.677Z,100381.00
2022-11-19T20:29:14.799Z,100385.03
2022-11-19T20:31:47.395Z,100385.56
2022-11-19T20:34:17.314Z,100375.81
2022-11-19T20:36:44.822Z,100365.63
2022-11-19T20:39:13.452Z,100362.97
2022-11-19T20:41:59.540Z,100362.75
2022-11-19T20:44:26.784Z,100367.56
2022-11-19T20:47:02.873Z,100359.69
2022-11-19T20:49:36.616Z,100349.06
2022-11-19T20:52:04.161Z,100354.38
2022-11-19T20:54:32.305Z,100347.19
2022-11-19T20:57:00.684Z,100350.38
2022-11-19T20:59:28.835Z,100333.47
2022-11-19T21:01:57.502Z,100330.53
2022-11-19T21:04:26.607Z,100323.28
2022-11-19T21:06:57.485Z,100327.41
2022-11-19T21:09:25.423Z,100326.22
2022-11-19T21:11:53.021Z,100320.59
2022-11-19T21:14:20.352Z,100311.66
2022-11-19T21:16:49.376Z,100306.88
2022-11-19T21:19:21.416Z,100303.28
2022-11-19T21:21:48.973Z,100296.78
2022-11-19T21:24:16.798Z,100298.13
2022-11-19T21:26:46.869Z,100290.16
2022-11-19T21:29:15.178Z,100288.03
2022-11-19T21:31:44.675Z,100274.88
2022-11-19T21:34:18.154Z,100264.63
2022-11-19T21:36:48.752Z,100254.69
2022-11-19T21:39:19.389Z,100268.34
2022-11-19T21:41:47.214Z,100257.00
2022-11-19T21:44:19.856Z,100259.44
2022-11-19T21:46:48.623Z,100247.88
2022-11-19T21:49:16.344Z,100244.38
2022-11-19T21:51:44.310Z,100233.97
2022-11-19T21:54:13.104Z,100231.41
2022-11-19T21:56:41.698Z,100219.44
2022-11-19T21:59:09.486Z,100213.31
2022-11-19T22:01:37.363Z,100219.09
2022-11-19T22:04:05.699Z,100232.31
2022-11-19T22:06:33.293Z,100248.78
2022-11-19T22:09:00.689Z,100251.13
2022-11-19T22:11:31.237Z,100239.56
2022-11-19T22:14:04.666Z,100212.50
2022-11-19T22:16:34.377Z,100205.81
2022-11-19T22:19:01.836Z,100210.50
2022-11-19T22:21:32.169Z,100197.69
2022-11-19T22:24:00.779Z,100185.72
2022-11-19T22:26:28.336Z,100186.00
2022-11-19T22:28:56.959Z,100192.50
2022-11-19T22:31:25.492Z,100197.63
2022-11-19T22:33:54.195Z,100194.09
2022-11-19T22:36:23.364Z,100189.22
2022-11-19T22:38:51.864Z,100175.13
2022-11-19T22:41:20.929Z,100178.09
2022-11-19T22:43:48.651Z,100169.97
2022-11-19T22:46:16.340Z,100161.38
2022-11-19T22:48:43.643Z,100174.63
2022-11-19T22:51:18.223Z,100157.47
2022-11-19T22:53:45.860Z,100164.44
2022-11-19T22:56:15.854Z,100168.13
2022-11-19T22:58:43.428Z,100164.84
2022-11-19T23:01:24.471Z,100170.59
2022-11-19T23:03:52.043Z,100168.16
2022-11-19T23:06:19.676Z,100148.09
2022-11-19T23:08:47.179Z,100162.13
2022-11-19T23:11:16.464Z,100163.25
2022-11-19T23:13:45.505Z,100152.88
2022-11-19T23:16:16.324Z,100152.00
2022-11-19T23:18:49.911Z,100145.44
2022-11-19T23:21:21.038Z,100139.31
2022-11-19T23:23:48.747Z,100141.19
2022-11-19T23:26:19.112Z,100125.50
2022-11-19T23:28:46.374Z,100117.22
2022-11-19T23:31:21.923Z,100119.13
2022-11-19T23:33:54.463Z,100114.03
2022-11-19T23:36:27.639Z,100108.97
2022-11-19T23:38:54.859Z,100104.06
2022-11-19T23:41:22.620Z,100108.09
2022-11-19T23:43:51.570Z,100120.38
2022-11-19T23:46:22.977Z,100118.78
2022-11-19T23:48:51.514Z,100113.91
2022-11-19T23:51:25.500Z,100120.78
2022-11-19T23:53:53.534Z,100104.47
2022-11-19T23:56:22.326Z,100123.75
2022-11-19T23:58:49.951Z,100115.91
